sensor_id;sensor_type;location;lat;lon;timestamp;P1;durP1;ratioP1;P2;durP2;ratioP2
30000;SDS011;16845;48.670;9.000;2023-02-28T00:01:25;6.85;;;3.92;;
30000;SDS011;16845;48.670;9.000;2023-02-28T00:03:54;4.65;;;3.38;;
30000;SDS011;16845;48.670;9.000;2023-02-28T00:06:22;5.47;;;3.42;;
30000;SDS011;16845;48.670;9.000;2023-02-28T00:08:51;4.85;;;3.20;;
30000;SDS011;16845;48.670;9.000;2023-02-28T00:11:19;4.10;;;3.13;;
30000;SDS011;16845;48.670;9.000;2023-02-28T00:13:47;5.57;;;3.35;;
30000;SDS011;16845;48.670;9.000;2023-02-28T00:16:18;6.13;;;3.38;;
30000;SDS011;16845;48.670;9.000;2023-02-28T00:18:48;7.40;;;3.92;;
30000;SDS011;16845;48.670;9.000;2023-02-28T00:21:17;5.32;;;3.58;;
30000;SDS011;16845;48.670;9.000;2023-02-28T00:23:46;6.72;;;4.10;;
30000;SDS011;16845;48.670;9.000;2023-02-28T00:26:14;4.90;;;3.60;;
30000;SDS011;16845;48.670;9.000;2023-02-28T00:28:42;5.85;;;4.18;;
30000;SDS011;16845;48.670;9.000;2023-02-28T00:31:10;5.85;;;3.38;;
30000;SDS011;16845;48.670;9.000;2023-02-28T00:33:39;11.60;;;3.97;;
30000;SDS011;16845;48.670;9.000;2023-02-28T00:36:08;8.13;;;3.60;;
30000;SDS011;16845;48.670;9.000;2023-02-28T00:38:38;4.15;;;3.50;;
30000;SDS011;16845;48.670;9.000;2023-02-28T00:41:07;5.80;;;3.30;;
30000;SDS011;16845;48.670;9.000;2023-02-28T00:43:36;7.25;;;4.00;;
30000;SDS011;16845;48.670;9.000;2023-02-28T00:46:05;7.25;;;3.33;;
30000;SDS011;16845;48.670;9.000;2023-02-28T00:48:34;6.05;;;3.95;;
30000;SDS011;16845;48.670;9.000;2023-02-28T00:51:04;8.38;;;3.60;;
30000;SDS011;16845;48.670;9.000;2023-02-28T00:53:32;7.90;;;4.60;;
30000;SDS011;16845;48.670;9.000;2023-02-28T00:56:00;9.55;;;4.15;;
30000;SDS011;16845;48.670;9.000;2023-02-28T00:58:28;9.90;;;4.75;;
30000;SDS011;16845;48.670;9.000;2023-02-28T01:00:56;4.18;;;3.20;;
30000;SDS011;16845;48.670;9.000;2023-02-28T01:03:24;4.75;;;3.58;;
30000;SDS011;16845;48.670;9.000;2023-02-28T01:05:52;5.57;;;3.92;;
30000;SDS011;16845;48.670;9.000;2023-02-28T01:08:21;5.55;;;3.63;;
30000;SDS011;16845;48.670;9.000;2023-02-28T01:10:49;9.93;;;4.22;;
30000;SDS011;16845;48.670;9.000;2023-02-28T01:13:17;5.50;;;3.92;;
30000;SDS011;16845;48.670;9.000;2023-02-28T01:15:48;6.95;;;4.18;;
30000;SDS011;16845;48.670;9.000;2023-02-28T01:18:18;9.10;;;3.88;;
30000;SDS011;16845;48.670;9.000;2023-02-28T01:20:46;6.03;;;3.95;;
30000;SDS011;16845;48.670;9.000;2023-02-28T01:23:14;7.55;;;3.65;;
30000;SDS011;16845;48.670;9.000;2023-02-28T01:25:43;9.90;;;3.65;;
30000;SDS011;16845;48.670;9.000;2023-02-28T01:28:11;7.25;;;4.53;;
30000;SDS011;16845;48.670;9.000;2023-02-28T01:30:39;8.55;;;4.13;;
30000;SDS011;16845;48.670;9.000;2023-02-28T01:33:07;10.35;;;5.00;;
30000;SDS011;16845;48.670;9.000;2023-02-28T01:35:35;7.15;;;4.50;;
30000;SDS011;16845;48.670;9.000;2023-02-28T01:38:03;9.75;;;4.63;;
30000;SDS011;16845;48.670;9.000;2023-02-28T01:40:48;6.80;;;3.53;;
30000;SDS011;16845;48.670;9.000;2023-02-28T01:43:19;7.70;;;3.97;;
30000;SDS011;16845;48.670;9.000;2023-02-28T01:45:49;9.02;;;4.35;;
30000;SDS011;16845;48.670;9.000;2023-02-28T01:48:18;7.65;;;3.95;;
30000;SDS011;16845;48.670;9.000;2023-02-28T01:50:48;7.18;;;4.15;;
30000;SDS011;16845;48.670;9.000;2023-02-28T01:53:17;8.13;;;4.55;;
30000;SDS011;16845;48.670;9.000;2023-02-28T01:55:50;6.82;;;4.30;;
30000;SDS011;16845;48.670;9.000;2023-02-28T01:58:20;6.82;;;3.60;;
30000;SDS011;16845;48.670;9.000;2023-02-28T02:00:48;5.43;;;3.90;;
30000;SDS011;16845;48.670;9.000;2023-02-28T02:03:17;7.18;;;4.18;;
30000;SDS011;16845;48.670;9.000;2023-02-28T02:05:47;6.00;;;4.15;;
30000;SDS011;16845;48.670;9.000;2023-02-28T02:08:16;7.60;;;4.18;;
30000;SDS011;16845;48.670;9.000;2023-02-28T02:10:46;9.73;;;4.90;;
30000;SDS011;16845;48.670;9.000;2023-02-28T02:13:25;5.70;;;3.85;;
30000;SDS011;16845;48.670;9.000;2023-02-28T02:16:13;5.50;;;4.43;;
30000;SDS011;16845;48.670;9.000;2023-02-28T02:18:52;7.50;;;4.38;;
30000;SDS011;16845;48.670;9.000;2023-02-28T02:21:40;7.40;;;4.70;;
30000;SDS011;16845;48.670;9.000;2023-02-28T02:24:33;9.48;;;4.38;;
30000;SDS011;16845;48.670;9.000;2023-02-28T02:27:28;6.90;;;4.75;;
30000;SDS011;16845;48.670;9.000;2023-02-28T02:30:24;12.88;;;4.18;;
30000;SDS011;16845;48.670;9.000;2023-02-28T02:36:14;9.80;;;4.63;;
30000;SDS011;16845;48.670;9.000;2023-02-28T02:38:49;9.00;;;4.85;;
30000;SDS011;16845;48.670;9.000;2023-02-28T02:41:23;8.82;;;5.03;;
30000;SDS011;16845;48.670;9.000;2023-02-28T02:43:56;8.20;;;4.85;;
30000;SDS011;16845;48.670;9.000;2023-02-28T02:46:31;6.95;;;5.13;;
30000;SDS011;16845;48.670;9.000;2023-02-28T02:49:02;9.05;;;4.57;;
30000;SDS011;16845;48.670;9.000;2023-02-28T02:51:34;8.63;;;5.93;;
30000;SDS011;16845;48.670;9.000;2023-02-28T02:54:05;8.65;;;4.65;;
30000;SDS011;16845;48.670;9.000;2023-02-28T02:56:38;8.52;;;5.10;;
30000;SDS011;16845;48.670;9.000;2023-02-28T02:59:09;7.10;;;5.15;;
30000;SDS011;16845;48.670;9.000;2023-02-28T03:01:40;6.78;;;5.13;;
30000;SDS011;16845;48.670;9.000;2023-02-28T03:04:10;10.73;;;5.65;;
30000;SDS011;16845;48.670;9.000;2023-02-28T03:06:43;9.05;;;5.60;;
30000;SDS011;16845;48.670;9.000;2023-02-28T03:09:10;10.20;;;5.35;;
30000;SDS011;16845;48.670;9.000;2023-02-28T03:11:38;11.13;;;5.18;;
30000;SDS011;16845;48.670;9.000;2023-02-28T03:14:10;9.63;;;5.32;;
30000;SDS011;16845;48.670;9.000;2023-02-28T03:17:07;6.25;;;5.10;;
30000;SDS011;16845;48.670;9.000;2023-02-28T03:19:45;7.93;;;5.05;;
30000;SDS011;16845;48.670;9.000;2023-02-28T03:22:23;7.50;;;4.97;;
30000;SDS011;16845;48.670;9.000;2023-02-28T03:25:11;10.32;;;5.70;;
30000;SDS011;16845;48.670;9.000;2023-02-28T03:27:45;7.72;;;5.95;;
30000;SDS011;16845;48.670;9.000;2023-02-28T03:30:23;9.68;;;5.70;;
30000;SDS011;16845;48.670;9.000;2023-02-28T03:32:56;11.27;;;5.85;;
30000;SDS011;16845;48.670;9.000;2023-02-28T03:35:32;9.27;;;5.63;;
30000;SDS011;16845;48.670;9.000;2023-02-28T03:38:05;8.27;;;4.82;;
30000;SDS011;16845;48.670;9.000;2023-02-28T03:40:41;6.75;;;5.40;;
30000;SDS011;16845;48.670;9.000;2023-02-28T03:43:15;10.40;;;5.53;;
30000;SDS011;16845;48.670;9.000;2023-02-28T03:45:48;9.07;;;6.20;;
30000;SDS011;16845;48.670;9.000;2023-02-28T03:48:19;9.23;;;5.40;;
30000;SDS011;16845;48.670;9.000;2023-02-28T03:50:51;7.72;;;5.63;;
30000;SDS011;16845;48.670;9.000;2023-02-28T03:53:25;14.20;;;5.93;;
30000;SDS011;16845;48.670;9.000;2023-02-28T03:55:57;8.30;;;5.88;;
30000;SDS011;16845;48.670;9.000;2023-02-28T03:58:28;12.77;;;7.18;;
30000;SDS011;16845;48.670;9.000;2023-02-28T04:01:01;7.55;;;5.60;;
30000;SDS011;16845;48.670;9.000;2023-02-28T04:03:36;8.65;;;6.47;;
30000;SDS011;16845;48.670;9.000;2023-02-28T04:06:06;8.90;;;5.70;;
30000;SDS011;16845;48.670;9.000;2023-02-28T04:08:41;10.18;;;6.38;;
30000;SDS011;16845;48.670;9.000;2023-02-28T04:11:12;12.45;;;6.32;;
30000;SDS011;16845;48.670;9.000;2023-02-28T04:13:47;10.05;;;6.10;;
30000;SDS011;16845;48.670;9.000;2023-02-28T04:16:15;10.85;;;7.22;;
30000;SDS011;16845;48.670;9.000;2023-02-28T04:18:59;9.02;;;6.13;;
30000;SDS011;16845;48.670;9.000;2023-02-28T04:21:29;12.07;;;6.70;;
30000;SDS011;16845;48.670;9.000;2023-02-28T04:23:59;9.27;;;6.35;;
30000;SDS011;16845;48.670;9.000;2023-02-28T04:26:28;9.63;;;6.43;;
30000;SDS011;16845;48.670;9.000;2023-02-28T04:28:57;10.32;;;6.63;;
30000;SDS011;16845;48.670;9.000;2023-02-28T04:31:25;9.80;;;6.22;;
30000;SDS011;16845;48.670;9.000;2023-02-28T04:33:54;13.70;;;6.55;;
30000;SDS011;16845;48.670;9.000;2023-02-28T04:36:22;12.18;;;6.60;;
30000;SDS011;16845;48.670;9.000;2023-02-28T04:38:50;9.88;;;6.60;;
30000;SDS011;16845;48.670;9.000;2023-02-28T04:41:20;12.02;;;7.03;;
30000;SDS011;16845;48.670;9.000;2023-02-28T04:43:49;9.82;;;6.82;;
30000;SDS011;16845;48.670;9.000;2023-02-28T04:46:18;10.27;;;6.43;;
30000;SDS011;16845;48.670;9.000;2023-02-28T04:48:47;10.48;;;7.07;;
30000;SDS011;16845;48.670;9.000;2023-02-28T04:51:16;10.27;;;6.38;;
30000;SDS011;16845;48.670;9.000;2023-02-28T04:53:45;10.35;;;6.40;;
30000;SDS011;16845;48.670;9.000;2023-02-28T04:56:16;10.77;;;6.97;;
30000;SDS011;16845;48.670;9.000;2023-02-28T04:58:46;11.40;;;6.65;;
30000;SDS011;16845;48.670;9.000;2023-02-28T05:01:16;13.68;;;6.90;;
30000;SDS011;16845;48.670;9.000;2023-02-28T05:03:46;10.75;;;6.80;;
30000;SDS011;16845;48.670;9.000;2023-02-28T05:06:14;16.73;;;8.20;;
30000;SDS011;16845;48.670;9.000;2023-02-28T05:08:43;12.25;;;7.32;;
30000;SDS011;16845;48.670;9.000;2023-02-28T05:11:15;11.35;;;7.22;;
30000;SDS011;16845;48.670;9.000;2023-02-28T05:13:47;11.18;;;7.72;;
30000;SDS011;16845;48.670;9.000;2023-02-28T05:16:15;15.63;;;8.65;;
30000;SDS011;16845;48.670;9.000;2023-02-28T05:18:44;11.70;;;7.50;;
30000;SDS011;16845;48.670;9.000;2023-02-28T05:21:21;10.93;;;7.03;;
30000;SDS011;16845;48.670;9.000;2023-02-28T05:23:52;9.50;;;6.45;;
30000;SDS011;16845;48.670;9.000;2023-02-28T05:26:21;13.93;;;9.32;;
30000;SDS011;16845;48.670;9.000;2023-02-28T05:28:50;10.55;;;7.45;;
30000;SDS011;16845;48.670;9.000;2023-02-28T05:31:18;14.55;;;7.97;;
30000;SDS011;16845;48.670;9.000;2023-02-28T05:33:46;8.25;;;6.63;;
30000;SDS011;16845;48.670;9.000;2023-02-28T05:36:14;10.05;;;7.10;;
30000;SDS011;16845;48.670;9.000;2023-02-28T05:38:42;12.93;;;8.15;;
30000;SDS011;16845;48.670;9.000;2023-02-28T05:41:12;16.73;;;7.22;;
30000;SDS011;16845;48.670;9.000;2023-02-28T05:43:40;12.95;;;8.50;;
30000;SDS011;16845;48.670;9.000;2023-02-28T05:46:10;16.90;;;7.80;;
30000;SDS011;16845;48.670;9.000;2023-02-28T05:48:39;11.05;;;7.78;;
30000;SDS011;16845;48.670;9.000;2023-02-28T05:51:08;11.52;;;7.72;;
30000;SDS011;16845;48.670;9.000;2023-02-28T05:53:36;10.10;;;7.72;;
30000;SDS011;16845;48.670;9.000;2023-02-28T05:56:05;17.58;;;8.50;;
30000;SDS011;16845;48.670;9.000;2023-02-28T05:58:33;12.20;;;7.53;;
30000;SDS011;16845;48.670;9.000;2023-02-28T06:01:18;14.90;;;8.48;;
30000;SDS011;16845;48.670;9.000;2023-02-28T06:03:49;14.57;;;7.97;;
30000;SDS011;16845;48.670;9.000;2023-02-28T06:06:17;18.05;;;8.23;;
30000;SDS011;16845;48.670;9.000;2023-02-28T06:08:45;15.55;;;8.75;;
30000;SDS011;16845;48.670;9.000;2023-02-28T06:11:13;12.57;;;7.75;;
30000;SDS011;16845;48.670;9.000;2023-02-28T06:13:41;15.25;;;8.45;;
30000;SDS011;16845;48.670;9.000;2023-02-28T06:16:09;14.55;;;8.02;;
30000;SDS011;16845;48.670;9.000;2023-02-28T06:18:39;14.55;;;9.00;;
30000;SDS011;16845;48.670;9.000;2023-02-28T06:21:07;14.50;;;8.88;;
30000;SDS011;16845;48.670;9.000;2023-02-28T06:23:35;16.60;;;9.90;;
30000;SDS011;16845;48.670;9.000;2023-02-28T06:26:03;13.65;;;8.32;;
30000;SDS011;16845;48.670;9.000;2023-02-28T06:28:31;14.90;;;8.95;;
30000;SDS011;16845;48.670;9.000;2023-02-28T06:30:59;16.40;;;8.27;;
30000;SDS011;16845;48.670;9.000;2023-02-28T06:33:34;13.68;;;9.20;;
30000;SDS011;16845;48.670;9.000;2023-02-28T06:36:04;14.27;;;9.82;;
30000;SDS011;16845;48.670;9.000;2023-02-28T06:38:33;17.15;;;10.60;;
30000;SDS011;16845;48.670;9.000;2023-02-28T06:41:01;12.90;;;8.68;;
30000;SDS011;16845;48.670;9.000;2023-02-28T06:43:31;19.55;;;10.43;;
30000;SDS011;16845;48.670;9.000;2023-02-28T06:46:02;15.15;;;8.85;;
30000;SDS011;16845;48.670;9.000;2023-02-28T06:48:32;19.08;;;9.07;;
30000;SDS011;16845;48.670;9.000;2023-02-28T06:51:02;14.57;;;9.68;;
30000;SDS011;16845;48.670;9.000;2023-02-28T06:53:33;14.45;;;8.77;;
30000;SDS011;16845;48.670;9.000;2023-02-28T06:56:03;15.90;;;9.93;;
30000;SDS011;16845;48.670;9.000;2023-02-28T06:58:32;14.60;;;9.68;;
30000;SDS011;16845;48.670;9.000;2023-02-28T07:01:01;16.35;;;10.13;;
30000;SDS011;16845;48.670;9.000;2023-02-28T07:03:29;19.65;;;10.43;;
30000;SDS011;16845;48.670;9.000;2023-02-28T07:05:59;14.93;;;9.82;;
30000;SDS011;16845;48.670;9.000;2023-02-28T07:08:30;19.67;;;10.05;;
30000;SDS011;16845;48.670;9.000;2023-02-28T07:10:59;15.88;;;10.13;;
30000;SDS011;16845;48.670;9.000;2023-02-28T07:13:27;19.13;;;9.23;;
30000;SDS011;16845;48.670;9.000;2023-02-28T07:15:56;17.25;;;9.98;;
30000;SDS011;16845;48.670;9.000;2023-02-28T07:18:24;16.52;;;9.55;;
30000;SDS011;16845;48.670;9.000;2023-02-28T07:20:52;14.70;;;9.68;;
30000;SDS011;16845;48.670;9.000;2023-02-28T07:23:21;15.23;;;9.20;;
30000;SDS011;16845;48.670;9.000;2023-02-28T07:25:50;19.83;;;10.55;;
30000;SDS011;16845;48.670;9.000;2023-02-28T07:28:19;17.85;;;9.13;;
30000;SDS011;16845;48.670;9.000;2023-02-28T07:30:47;16.70;;;10.13;;
30000;SDS011;16845;48.670;9.000;2023-02-28T07:33:15;16.58;;;10.80;;
30000;SDS011;16845;48.670;9.000;2023-02-28T07:35:43;15.73;;;9.82;;
30000;SDS011;16845;48.670;9.000;2023-02-28T07:38:11;13.77;;;9.35;;
30000;SDS011;16845;48.670;9.000;2023-02-28T07:40:40;19.30;;;10.63;;
30000;SDS011;16845;48.670;9.000;2023-02-28T07:43:09;19.33;;;10.85;;
30000;SDS011;16845;48.670;9.000;2023-02-28T07:45:37;18.75;;;10.30;;
30000;SDS011;16845;48.670;9.000;2023-02-28T07:48:05;17.48;;;10.52;;
30000;SDS011;16845;48.670;9.000;2023-02-28T07:50:36;16.17;;;10.73;;
30000;SDS011;16845;48.670;9.000;2023-02-28T07:53:04;14.77;;;9.68;;
30000;SDS011;16845;48.670;9.000;2023-02-28T07:55:32;15.60;;;9.90;;
30000;SDS011;16845;48.670;9.000;2023-02-28T07:58:00;16.05;;;10.15;;
30000;SDS011;16845;48.670;9.000;2023-02-28T08:00:29;20.95;;;11.23;;
30000;SDS011;16845;48.670;9.000;2023-02-28T08:02:58;15.07;;;10.23;;
30000;SDS011;16845;48.670;9.000;2023-02-28T08:05:26;21.52;;;10.68;;
30000;SDS011;16845;48.670;9.000;2023-02-28T08:07:54;16.23;;;10.40;;
30000;SDS011;16845;48.670;9.000;2023-02-28T08:10:22;17.63;;;11.13;;
30000;SDS011;16845;48.670;9.000;2023-02-28T08:12:50;16.83;;;11.10;;
30000;SDS011;16845;48.670;9.000;2023-02-28T08:15:18;21.02;;;10.82;;
30000;SDS011;16845;48.670;9.000;2023-02-28T08:17:47;17.42;;;10.80;;
30000;SDS011;16845;48.670;9.000;2023-02-28T08:20:15;18.27;;;11.18;;
30000;SDS011;16845;48.670;9.000;2023-02-28T08:22:43;16.70;;;10.98;;
30000;SDS011;16845;48.670;9.000;2023-02-28T08:25:11;18.58;;;11.55;;
30000;SDS011;16845;48.670;9.000;2023-02-28T08:27:39;16.58;;;10.98;;
30000;SDS011;16845;48.670;9.000;2023-02-28T08:30:08;19.80;;;12.55;;
30000;SDS011;16845;48.670;9.000;2023-02-28T08:32:37;16.73;;;10.43;;
30000;SDS011;16845;48.670;9.000;2023-02-28T08:35:08;18.65;;;11.32;;
30000;SDS011;16845;48.670;9.000;2023-02-28T08:37:36;16.63;;;11.32;;
30000;SDS011;16845;48.670;9.000;2023-02-28T08:40:05;18.77;;;10.93;;
30000;SDS011;16845;48.670;9.000;2023-02-28T08:42:34;18.92;;;11.13;;
30000;SDS011;16845;48.670;9.000;2023-02-28T08:45:02;17.73;;;11.27;;
30000;SDS011;16845;48.670;9.000;2023-02-28T08:47:30;18.33;;;11.57;;
30000;SDS011;16845;48.670;9.000;2023-02-28T08:49:59;19.92;;;11.50;;
30000;SDS011;16845;48.670;9.000;2023-02-28T08:52:28;20.35;;;11.60;;
30000;SDS011;16845;48.670;9.000;2023-02-28T08:54:56;19.58;;;11.80;;
30000;SDS011;16845;48.670;9.000;2023-02-28T08:57:24;18.98;;;11.05;;
30000;SDS011;16845;48.670;9.000;2023-02-28T08:59:53;15.90;;;10.32;;
30000;SDS011;16845;48.670;9.000;2023-02-28T09:02:21;19.17;;;10.95;;
30000;SDS011;16845;48.670;9.000;2023-02-28T09:04:49;19.42;;;12.05;;
30000;SDS011;16845;48.670;9.000;2023-02-28T09:07:17;17.95;;;11.00;;
30000;SDS011;16845;48.670;9.000;2023-02-28T09:09:47;19.67;;;11.48;;
30000;SDS011;16845;48.670;9.000;2023-02-28T09:12:21;19.35;;;12.40;;
30000;SDS011;16845;48.670;9.000;2023-02-28T09:14:49;18.45;;;11.70;;
30000;SDS011;16845;48.670;9.000;2023-02-28T09:17:17;25.45;;;11.75;;
30000;SDS011;16845;48.670;9.000;2023-02-28T09:19:47;15.25;;;10.27;;
30000;SDS011;16845;48.670;9.000;2023-02-28T09:22:15;19.13;;;11.23;;
30000;SDS011;16845;48.670;9.000;2023-02-28T09:24:43;18.50;;;11.98;;
30000;SDS011;16845;48.670;9.000;2023-02-28T09:27:13;18.80;;;10.77;;
30000;SDS011;16845;48.670;9.000;2023-02-28T09:29:41;17.85;;;11.55;;
30000;SDS011;16845;48.670;9.000;2023-02-28T09:32:08;17.90;;;10.45;;
30000;SDS011;16845;48.670;9.000;2023-02-28T09:34:37;22.65;;;12.43;;
30000;SDS011;16845;48.670;9.000;2023-02-28T09:37:05;18.83;;;11.40;;
30000;SDS011;16845;48.670;9.000;2023-02-28T09:39:33;23.02;;;12.60;;
30000;SDS011;16845;48.670;9.000;2023-02-28T09:42:01;25.17;;;12.77;;
30000;SDS011;16845;48.670;9.000;2023-02-28T09:44:31;14.48;;;10.52;;
30000;SDS011;16845;48.670;9.000;2023-02-28T09:47:05;16.90;;;11.55;;
30000;SDS011;16845;48.670;9.000;2023-02-28T09:49:40;22.48;;;12.23;;
30000;SDS011;16845;48.670;9.000;2023-02-28T09:52:14;17.45;;;10.82;;
30000;SDS011;16845;48.670;9.000;2023-02-28T09:54:45;17.80;;;11.23;;
30000;SDS011;16845;48.670;9.000;2023-02-28T09:57:15;16.98;;;10.38;;
30000;SDS011;16845;48.670;9.000;2023-02-28T09:59:51;18.65;;;11.45;;
30000;SDS011;16845;48.670;9.000;2023-02-28T10:02:40;18.85;;;11.23;;
30000;SDS011;16845;48.670;9.000;2023-02-28T10:05:35;18.85;;;10.93;;
30000;SDS011;16845;48.670;9.000;2023-02-28T10:08:11;21.70;;;12.10;;
30000;SDS011;16845;48.670;9.000;2023-02-28T10:10:42;18.80;;;10.65;;
30000;SDS011;16845;48.670;9.000;2023-02-28T10:13:17;17.83;;;10.85;;
30000;SDS011;16845;48.670;9.000;2023-02-28T10:15:53;18.98;;;10.60;;
30000;SDS011;16845;48.670;9.000;2023-02-28T10:18:27;16.02;;;10.93;;
30000;SDS011;16845;48.670;9.000;2023-02-28T10:20:58;20.45;;;11.07;;
30000;SDS011;16845;48.670;9.000;2023-02-28T10:23:27;20.70;;;11.50;;
30000;SDS011;16845;48.670;9.000;2023-02-28T10:26:00;26.35;;;12.35;;
30000;SDS011;16845;48.670;9.000;2023-02-28T10:28:32;15.95;;;11.55;;
30000;SDS011;16845;48.670;9.000;2023-02-28T10:31:02;31.23;;;12.05;;
30000;SDS011;16845;48.670;9.000;2023-02-28T10:33:31;18.50;;;11.75;;
30000;SDS011;16845;48.670;9.000;2023-02-28T10:36:00;20.10;;;11.75;;
30000;SDS011;16845;48.670;9.000;2023-02-28T10:38:32;17.88;;;11.48;;
30000;SDS011;16845;48.670;9.000;2023-02-28T10:41:03;19.20;;;10.90;;
30000;SDS011;16845;48.670;9.000;2023-02-28T10:43:32;15.63;;;10.85;;
30000;SDS011;16845;48.670;9.000;2023-02-28T10:46:03;20.70;;;11.50;;
30000;SDS011;16845;48.670;9.000;2023-02-28T10:48:41;15.07;;;10.45;;
30000;SDS011;16845;48.670;9.000;2023-02-28T10:51:12;17.30;;;11.13;;
30000;SDS011;16845;48.670;9.000;2023-02-28T10:53:48;20.23;;;12.15;;
30000;SDS011;16845;48.670;9.000;2023-02-28T10:56:27;18.42;;;10.40;;
30000;SDS011;16845;48.670;9.000;2023-02-28T10:58:57;19.73;;;11.10;;
30000;SDS011;16845;48.670;9.000;2023-02-28T11:01:36;19.75;;;10.98;;
30000;SDS011;16845;48.670;9.000;2023-02-28T11:07:03;19.73;;;11.25;;
30000;SDS011;16845;48.670;9.000;2023-02-28T11:09:34;16.45;;;10.73;;
30000;SDS011;16845;48.670;9.000;2023-02-28T11:12:05;20.17;;;11.30;;
30000;SDS011;16845;48.670;9.000;2023-02-28T11:14:37;21.73;;;12.15;;
30000;SDS011;16845;48.670;9.000;2023-02-28T11:17:18;16.27;;;11.10;;
30000;SDS011;16845;48.670;9.000;2023-02-28T11:19:50;15.88;;;9.95;;
30000;SDS011;16845;48.670;9.000;2023-02-28T11:22:20;15.75;;;10.98;;
30000;SDS011;16845;48.670;9.000;2023-02-28T11:24:55;15.98;;;11.23;;
30000;SDS011;16845;48.670;9.000;2023-02-28T11:27:40;15.73;;;11.52;;
30000;SDS011;16845;48.670;9.000;2023-02-28T11:30:29;17.98;;;11.10;;
30000;SDS011;16845;48.670;9.000;2023-02-28T11:35:51;16.85;;;11.68;;
30000;SDS011;16845;48.670;9.000;2023-02-28T11:38:22;18.38;;;10.95;;
30000;SDS011;16845;48.670;9.000;2023-02-28T11:40:55;16.98;;;11.15;;
30000;SDS011;16845;48.670;9.000;2023-02-28T11:43:38;19.98;;;11.80;;
30000;SDS011;16845;48.670;9.000;2023-02-28T11:46:20;19.17;;;11.02;;
30000;SDS011;16845;48.670;9.000;2023-02-28T11:49:01;24.55;;;12.45;;
30000;SDS011;16845;48.670;9.000;2023-02-28T11:51:47;20.23;;;12.25;;
30000;SDS011;16845;48.670;9.000;2023-02-28T11:57:28;15.68;;;10.50;;
30000;SDS011;16845;48.670;9.000;2023-02-28T12:00:03;15.50;;;10.27;;
30000;SDS011;16845;48.670;9.000;2023-02-28T12:02:59;18.42;;;10.25;;
30000;SDS011;16845;48.670;9.000;2023-02-28T12:05:38;17.38;;;11.20;;
30000;SDS011;16845;48.670;9.000;2023-02-28T12:08:18;16.27;;;10.90;;
30000;SDS011;16845;48.670;9.000;2023-02-28T12:10:57;13.75;;;10.70;;
30000;SDS011;16845;48.670;9.000;2023-02-28T12:13:35;16.85;;;9.73;;
30000;SDS011;16845;48.670;9.000;2023-02-28T12:19:01;12.82;;;9.43;;
30000;SDS011;16845;48.670;9.000;2023-02-28T12:21:40;14.82;;;10.77;;
30000;SDS011;16845;48.670;9.000;2023-02-28T12:24:32;15.25;;;10.65;;
30000;SDS011;16845;48.670;9.000;2023-02-28T12:27:13;14.30;;;9.40;;
30000;SDS011;16845;48.670;9.000;2023-02-28T12:29:46;11.23;;;9.02;;
30000;SDS011;16845;48.670;9.000;2023-02-28T12:32:18;14.70;;;10.32;;
30000;SDS011;16845;48.670;9.000;2023-02-28T12:34:51;14.80;;;10.18;;
30000;SDS011;16845;48.670;9.000;2023-02-28T12:37:24;12.65;;;9.93;;
30000;SDS011;16845;48.670;9.000;2023-02-28T12:39:58;16.52;;;11.70;;
30000;SDS011;16845;48.670;9.000;2023-02-28T12:42:31;18.63;;;10.60;;
30000;SDS011;16845;48.670;9.000;2023-02-28T12:45:04;13.90;;;10.25;;
30000;SDS011;16845;48.670;9.000;2023-02-28T12:47:38;14.52;;;9.90;;
30000;SDS011;16845;48.670;9.000;2023-02-28T12:50:09;13.38;;;10.57;;
30000;SDS011;16845;48.670;9.000;2023-02-28T12:52:41;15.57;;;11.60;;
30000;SDS011;16845;48.670;9.000;2023-02-28T12:55:20;15.35;;;10.77;;
30000;SDS011;16845;48.670;9.000;2023-02-28T12:57:57;16.52;;;10.60;;
30000;SDS011;16845;48.670;9.000;2023-02-28T13:00:34;14.55;;;10.60;;
30000;SDS011;16845;48.670;9.000;2023-02-28T13:03:21;14.82;;;10.13;;
30000;SDS011;16845;48.670;9.000;2023-02-28T13:09:02;13.70;;;9.35;;
30000;SDS011;16845;48.670;9.000;2023-02-28T13:11:37;14.55;;;9.75;;
30000;SDS011;16845;48.670;9.000;2023-02-28T13:14:16;14.65;;;9.93;;
30000;SDS011;16845;48.670;9.000;2023-02-28T13:16:49;16.83;;;10.05;;
30000;SDS011;16845;48.670;9.000;2023-02-28T13:19:23;10.18;;;8.20;;
30000;SDS011;16845;48.670;9.000;2023-02-28T13:21:53;14.50;;;9.60;;
30000;SDS011;16845;48.670;9.000;2023-02-28T13:30:00;15.35;;;9.30;;
30000;SDS011;16845;48.670;9.000;2023-02-28T13:35:43;18.42;;;11.50;;
30000;SDS011;16845;48.670;9.000;2023-02-28T13:38:17;15.45;;;9.60;;
30000;SDS011;16845;48.670;9.000;2023-02-28T13:40:50;11.65;;;8.68;;
30000;SDS011;16845;48.670;9.000;2023-02-28T13:43:18;10.52;;;8.90;;
30000;SDS011;16845;48.670;9.000;2023-02-28T13:46:08;12.82;;;9.40;;
30000;SDS011;16845;48.670;9.000;2023-02-28T13:48:40;12.20;;;9.50;;
30000;SDS011;16845;48.670;9.000;2023-02-28T13:51:28;13.10;;;8.65;;
30000;SDS011;16845;48.670;9.000;2023-02-28T13:54:12;13.43;;;9.53;;
30000;SDS011;16845;48.670;9.000;2023-02-28T13:56:53;14.55;;;9.70;;
30000;SDS011;16845;48.670;9.000;2023-02-28T13:59:33;17.33;;;8.98;;
30000;SDS011;16845;48.670;9.000;2023-02-28T14:02:30;12.77;;;9.40;;
30000;SDS011;16845;48.670;9.000;2023-02-28T14:05:14;14.70;;;9.50;;
30000;SDS011;16845;48.670;9.000;2023-02-28T14:07:45;13.10;;;10.07;;
30000;SDS011;16845;48.670;9.000;2023-02-28T14:10:21;14.35;;;10.55;;
30000;SDS011;16845;48.670;9.000;2023-02-28T14:12:53;14.70;;;9.63;;
30000;SDS011;16845;48.670;9.000;2023-02-28T14:15:43;13.32;;;11.15;;
30000;SDS011;16845;48.670;9.000;2023-02-28T14:18:16;17.13;;;10.43;;
30000;SDS011;16845;48.670;9.000;2023-02-28T14:20:52;17.48;;;10.75;;
30000;SDS011;16845;48.670;9.000;2023-02-28T14:23:41;16.17;;;10.63;;
30000;SDS011;16845;48.670;9.000;2023-02-28T14:26:33;16.30;;;11.10;;
30000;SDS011;16845;48.670;9.000;2023-02-28T14:29:23;18.88;;;10.82;;
30000;SDS011;16845;48.670;9.000;2023-02-28T14:32:05;17.38;;;10.73;;
30000;SDS011;16845;48.670;9.000;2023-02-28T14:37:15;15.35;;;11.25;;
30000;SDS011;16845;48.670;9.000;2023-02-28T14:39:52;17.35;;;11.50;;
30000;SDS011;16845;48.670;9.000;2023-02-28T14:42:27;14.98;;;11.52;;
30000;SDS011;16845;48.670;9.000;2023-02-28T14:44:57;16.60;;;10.80;;
30000;SDS011;16845;48.670;9.000;2023-02-28T14:47:26;20.25;;;11.38;;
30000;SDS011;16845;48.670;9.000;2023-02-28T14:49:58;18.38;;;11.13;;
30000;SDS011;16845;48.670;9.000;2023-02-28T14:52:28;14.82;;;10.93;;
30000;SDS011;16845;48.670;9.000;2023-02-28T14:54:59;17.85;;;10.98;;
30000;SDS011;16845;48.670;9.000;2023-02-28T14:57:28;19.27;;;11.57;;
30000;SDS011;16845;48.670;9.000;2023-02-28T14:59:59;16.08;;;11.77;;
30000;SDS011;16845;48.670;9.000;2023-02-28T15:02:30;14.32;;;10.35;;
30000;SDS011;16845;48.670;9.000;2023-02-28T15:05:22;20.90;;;11.25;;
30000;SDS011;16845;48.670;9.000;2023-02-28T15:08:02;15.80;;;12.45;;
30000;SDS011;16845;48.670;9.000;2023-02-28T15:10:37;22.65;;;11.55;;
30000;SDS011;16845;48.670;9.000;2023-02-28T15:13:10;18.00;;;12.18;;
30000;SDS011;16845;48.670;9.000;2023-02-28T15:15:41;13.90;;;9.85;;
30000;SDS011;16845;48.670;9.000;2023-02-28T15:18:29;16.23;;;11.25;;
30000;SDS011;16845;48.670;9.000;2023-02-28T15:21:01;20.25;;;11.48;;
30000;SDS011;16845;48.670;9.000;2023-02-28T15:23:33;17.75;;;11.55;;
30000;SDS011;16845;48.670;9.000;2023-02-28T15:26:03;18.40;;;12.02;;
30000;SDS011;16845;48.670;9.000;2023-02-28T15:28:32;21.77;;;10.98;;
30000;SDS011;16845;48.670;9.000;2023-02-28T15:31:01;19.27;;;11.18;;
30000;SDS011;16845;48.670;9.000;2023-02-28T15:33:32;17.45;;;11.40;;